Terminal Aerodrome Forecast
Issued by NWS Dodge City, KS

Home | Current Version | Previous Version | Graphics & Text | Print | Product List | Glossary Off
Versions: 1 2 3 4 5 6 7 8 9 10 11 12 13 14 15 16 17 18 19 20 21 22 23 24 25 26 27 28 29 30 31 32 33 34

000
FTUS43 KDDC 040520
TAFDDC
TAF
KDDC 040520Z 0406/0506 VRB06KT P6SM OVC100
      TEMPO 0406/0409 24020G30KT P6SM -SHRA OVC080
     FM041500 15014KT P6SM SCT060
     FM041900 18020G30KT P6SM SCT060
     FM050130 18010KT P6SM BKN100=

USA.gov is the U.S. government's official web portal to all federal, state and local government web resources and services.